Time;durP1;ratioP1;P1;durP2;ratioP2;P2;SDS_P1;SDS_P2;PMS_P1;PMS_P2;Temp;Humidity;BMP_temperature;BMP_pressure;BME280_temperature;BME280_humidity;BME280_pressure;Samples;Min_cycle;Max_cycle;Signal;HPM_P1;HPM_P2
2022/10/31 00:00:57;;;;;;;41.93;21.83;;;12.60;99.90;;;;;;5217574;28;20187;-53
2022/10/31 00:03:28;;;;;;;37.90;22.63;;;12.60;99.90;;;;;;5221457;28;20418;-51
2022/10/31 00:06:01;;;;;;;32.37;21.80;;;12.60;99.90;;;;;;5226945;28;20903;-52
2022/10/31 00:08:32;;;;;;;40.47;22.50;;;12.60;99.90;;;;;;5225909;28;20694;-50
2022/10/31 00:11:03;;;;;;;37.57;23.70;;;12.60;99.90;;;;;;5217881;28;20530;-52
2022/10/31 00:13:33;;;;;;;47.40;24.17;;;12.50;99.90;;;;;;5217845;28;20289;-51
2022/10/31 00:16:05;;;;;;;40.40;21.83;;;12.60;99.90;;;;;;5215800;28;20714;-51
2022/10/31 00:18:36;;;;;;;40.07;21.50;;;12.50;99.90;;;;;;5220798;28;20267;-51
2022/10/31 00:21:06;;;;;;;40.33;21.53;;;12.50;99.90;;;;;;5214379;28;20880;-50
2022/10/31 00:23:37;;;;;;;39.03;21.93;;;12.50;99.90;;;;;;5227425;28;20232;-53
2022/10/31 00:26:08;;;;;;;32.50;21.30;;;12.50;99.90;;;;;;5218531;28;20688;-51
2022/10/31 00:28:38;;;;;;;29.00;19.27;;;12.40;99.90;;;;;;5208479;28;20207;-50
2022/10/31 00:31:10;;;;;;;42.47;24.80;;;12.40;99.90;;;;;;5209907;28;20712;-51
2022/10/31 00:33:41;;;;;;;36.27;21.57;;;12.40;99.90;;;;;;5221882;28;20187;-48
2022/10/31 00:36:16;;;;;;;32.57;21.90;;;12.40;99.90;;;;;;5227514;28;20981;-51
2022/10/31 00:38:47;;;;;;;38.83;22.23;;;12.40;99.90;;;;;;5211072;28;20433;-52
2022/10/31 00:41:19;;;;;;;36.07;22.20;;;12.40;99.90;;;;;;5216467;28;20445;-52
2022/10/31 00:43:49;;;;;;;29.10;18.83;;;12.40;99.90;;;;;;5226642;28;20494;-51
2022/10/31 00:46:20;;;;;;;31.40;18.20;;;12.40;99.90;;;;;;5218417;28;20993;-51
2022/10/31 00:48:51;;;;;;;28.37;18.73;;;12.40;99.90;;;;;;5206081;28;20663;-51
2022/10/31 00:51:21;;;;;;;26.57;17.70;;;12.30;99.90;;;;;;5208429;28;20192;-51
2022/10/31 00:53:52;;;;;;;25.80;17.47;;;12.40;99.90;;;;;;5214043;28;20194;-50
2022/10/31 00:56:23;;;;;;;36.83;24.20;;;12.30;99.90;;;;;;5216733;28;20218;-52
2022/10/31 00:58:53;;;;;;;35.77;23.60;;;12.30;99.90;;;;;;5216697;28;20559;-53
2022/10/31 01:01:24;;;;;;;37.30;20.23;;;12.30;99.90;;;;;;5219539;28;20175;-51
2022/10/31 01:03:55;;;;;;;29.57;19.37;;;12.30;99.90;;;;;;5213716;28;20191;-51
2022/10/31 01:06:25;;;;;;;33.00;19.97;;;12.20;99.90;;;;;;5223808;28;20218;-51
2022/10/31 01:08:56;;;;;;;38.93;21.70;;;12.20;99.90;;;;;;5226524;28;20207;-51
2022/10/31 01:11:27;;;;;;;30.07;19.30;;;12.20;99.90;;;;;;5226558;28;20185;-53
2022/10/31 01:13:58;;;;;;;37.27;18.60;;;12.20;99.90;;;;;;5210074;28;20207;-51
2022/10/31 01:16:31;;;;;;;25.37;15.53;;;12.20;99.90;;;;;;5208210;28;20197;-50
2022/10/31 01:19:02;;;;;;;19.77;14.80;;;12.20;99.90;;;;;;5222414;28;20186;-51
2022/10/31 01:21:33;;;;;;;22.80;16.07;;;12.20;99.90;;;;;;5225741;28;20429;-51
2022/10/31 01:24:04;;;;;;;23.30;14.80;;;12.10;99.90;;;;;;5220644;28;20646;-51
2022/10/31 01:26:35;;;;;;;25.00;15.60;;;12.10;99.90;;;;;;5214358;28;20178;-53
2022/10/31 01:29:07;;;;;;;18.07;14.80;;;12.10;99.90;;;;;;5224488;28;20987;-50
2022/10/31 01:31:39;;;;;;;22.93;15.60;;;12.20;99.90;;;;;;5207786;28;20214;-53
2022/10/31 01:34:15;;;;;;;20.10;14.83;;;12.20;99.90;;;;;;5221576;28;20414;-51
2022/10/31 01:36:50;;;;;;;20.50;13.93;;;12.20;99.90;;;;;;5226059;28;20939;-49
2022/10/31 01:39:21;;;;;;;19.33;13.20;;;12.10;99.90;;;;;;5223384;28;20454;-50
2022/10/31 01:41:53;;;;;;;17.77;13.13;;;12.20;99.90;;;;;;5222227;28;20858;-52
2022/10/31 01:44:24;;;;;;;26.70;15.13;;;12.10;99.90;;;;;;5226108;28;20527;-51
2022/10/31 01:47:00;;;;;;;20.53;13.33;;;12.10;99.90;;;;;;5216567;28;20433;-51
2022/10/31 01:49:43;;;;;;;21.90;14.97;;;12.10;99.90;;;;;;5221998;28;20179;-50
2022/10/31 01:52:35;;;;;;;19.63;13.53;;;12.10;99.90;;;;;;5213661;28;20783;-49
2022/10/31 01:55:21;;;;;;;16.17;12.60;;;12.10;99.90;;;;;;5224607;28;20457;-50
2022/10/31 01:57:56;;;;;;;19.20;14.27;;;12.10;99.90;;;;;;5222239;28;20425;-50
2022/10/31 02:00:26;;;;;;;26.17;16.60;;;12.10;99.90;;;;;;5210869;28;20888;-50
2022/10/31 02:02:59;;;;;;;28.13;14.77;;;12.10;99.90;;;;;;5211687;28;20531;-50
2022/10/31 02:05:30;;;;;;;25.80;15.67;;;12.20;99.90;;;;;;5224273;28;20214;-51
2022/10/31 02:08:07;;;;;;;23.73;14.40;;;12.20;99.90;;;;;;5226252;28;20429;-51
2022/10/31 02:10:38;;;;;;;25.50;15.33;;;12.20;99.90;;;;;;5223268;28;20434;-51
2022/10/31 02:13:09;;;;;;;25.97;14.30;;;12.20;99.90;;;;;;5227643;28;20409;-50
2022/10/31 02:15:42;;;;;;;26.93;16.37;;;12.20;99.90;;;;;;5223976;28;20454;-53
2022/10/31 02:18:13;;;;;;;21.03;14.80;;;12.20;99.90;;;;;;5211371;28;20444;-51
2022/10/31 02:21:22;;;;;;;22.60;14.23;;;12.20;99.90;;;;;;5230117;28;20441;-51
2022/10/31 02:24:12;;;;;;;18.33;12.30;;;12.20;99.90;;;;;;5168013;28;20447;-51
2022/10/31 02:26:49;;;;;;;20.47;14.40;;;12.20;99.90;;;;;;5169452;28;20454;-52
2022/10/31 02:29:26;;;;;;;24.70;15.00;;;12.10;99.90;;;;;;5201098;28;20466;-50
2022/10/31 02:32:05;;;;;;;19.93;13.33;;;12.10;99.90;;;;;;5229413;28;20434;-54
2022/10/31 02:34:40;;;;;;;19.50;13.00;;;12.10;99.90;;;;;;5227933;28;20965;-52
2022/10/31 02:37:26;;;;;;;21.73;14.00;;;12.10;99.90;;;;;;5213765;28;20454;-50
2022/10/31 02:40:16;;;;;;;16.83;12.50;;;12.00;99.90;;;;;;5219341;28;20405;-50
2022/10/31 02:42:59;;;;;;;14.80;11.60;;;12.00;99.90;;;;;;5222455;28;20529;-53
2022/10/31 02:45:44;;;;;;;22.63;12.47;;;11.90;99.90;;;;;;5220262;28;20470;-52
2022/10/31 02:48:21;;;;;;;15.27;11.70;;;11.90;99.90;;;;;;5229686;28;20447;-50
2022/10/31 02:51:12;;;;;;;17.10;11.63;;;11.90;99.90;;;;;;5219888;28;20916;-51
2022/10/31 02:53:42;;;;;;;13.33;11.10;;;11.90;99.90;;;;;;5211139;28;20804;-52
2022/10/31 02:56:16;;;;;;;20.73;12.93;;;11.80;99.90;;;;;;5221127;28;20541;-51
2022/10/31 02:58:59;;;;;;;30.27;14.80;;;11.80;99.90;;;;;;5215017;28;20191;-52
2022/10/31 03:01:56;;;;;;;25.67;15.90;;;11.80;99.90;;;;;;5227212;28;20445;-51
2022/10/31 03:04:56;;;;;;;25.40;16.57;;;11.90;99.90;;;;;;5222855;28;20850;-50
2022/10/31 03:07:38;;;;;;;28.40;15.90;;;11.90;99.90;;;;;;5165240;28;20917;-51
2022/10/31 03:10:18;;;;;;;23.37;15.83;;;11.90;99.90;;;;;;5225514;28;20410;-50
2022/10/31 03:13:01;;;;;;;35.20;16.50;;;12.00;99.90;;;;;;5238151;28;20417;-51
2022/10/31 03:15:38;;;;;;;25.40;15.67;;;11.90;99.90;;;;;;5209271;28;21004;-51
2022/10/31 03:18:14;;;;;;;25.73;16.00;;;12.00;99.90;;;;;;5225475;28;21005;-52
2022/10/31 03:20:55;;;;;;;24.67;14.23;;;12.00;99.90;;;;;;5228842;28;20451;-51
2022/10/31 03:23:28;;;;;;;26.17;15.27;;;12.00;99.90;;;;;;5217156;28;20501;-51
2022/10/31 03:26:03;;;;;;;22.63;14.57;;;12.00;99.90;;;;;;5218109;28;20461;-50
2022/10/31 03:28:46;;;;;;;18.63;14.70;;;12.10;99.90;;;;;;5222205;28;20457;-50
2022/10/31 03:31:20;;;;;;;22.00;14.43;;;12.10;99.90;;;;;;5222395;28;20830;-49
2022/10/31 03:33:52;;;;;;;23.03;14.40;;;12.00;99.90;;;;;;5219944;28;20432;-50
2022/10/31 03:36:24;;;;;;;24.60;13.57;;;12.00;99.90;;;;;;5227875;28;20488;-50
2022/10/31 03:38:58;;;;;;;17.33;13.40;;;12.00;99.90;;;;;;5223847;28;20473;-51
2022/10/31 03:41:33;;;;;;;23.83;13.87;;;12.00;99.90;;;;;;5219591;28;20445;-50
2022/10/31 03:44:26;;;;;;;25.00;14.15;;;12.00;99.90;;;;;;5227279;28;20491;-50
2022/10/31 03:46:57;;;;;;;27.90;13.93;;;12.00;99.90;;;;;;5219621;28;20466;-50
2022/10/31 03:49:28;;;;;;;30.10;13.60;;;12.00;99.90;;;;;;5206876;28;20801;-51
2022/10/31 03:52:22;;;;;;;22.57;12.43;;;12.00;99.90;;;;;;5228102;28;20433;-51
2022/10/31 03:54:59;;;;;;;19.97;13.17;;;12.00;99.90;;;;;;5228936;28;20485;-53
2022/10/31 03:57:45;;;;;;;26.27;12.63;;;12.00;99.90;;;;;;5216417;28;20527;-51
2022/10/31 04:00:16;;;;;;;22.27;13.87;;;12.00;99.90;;;;;;5215308;28;20445;-50
2022/10/31 04:03:11;;;;;;;23.03;14.63;;;12.10;99.90;;;;;;5208794;28;20438;-52
2022/10/31 04:05:47;;;;;;;22.53;12.47;;;12.00;99.90;;;;;;5215275;28;20516;-47
2022/10/31 04:08:21;;;;;;;23.80;13.60;;;12.00;99.90;;;;;;5225967;28;20449;-46
2022/10/31 04:10:54;;;;;;;21.33;13.23;;;12.00;99.90;;;;;;5227718;28;20422;-48
2022/10/31 04:13:28;;;;;;;16.27;12.50;;;12.00;99.90;;;;;;5228442;28;20930;-48
2022/10/31 04:15:59;;;;;;;17.87;12.37;;;12.00;99.90;;;;;;5211465;28;20450;-47
2022/10/31 04:18:30;;;;;;;30.57;13.80;;;12.00;99.90;;;;;;5228364;28;20465;-47
2022/10/31 04:21:03;;;;;;;18.47;12.83;;;12.00;99.90;;;;;;5231419;28;20495;-47
2022/10/31 04:23:35;;;;;;;14.97;11.37;;;11.90;99.90;;;;;;5222177;28;20238;-47
2022/10/31 04:26:08;;;;;;;13.80;10.80;;;12.00;99.90;;;;;;5227517;28;20466;-48
2022/10/31 04:28:39;;;;;;;17.33;12.60;;;11.90;99.90;;;;;;5207259;28;20489;-48
2022/10/31 04:31:11;;;;;;;22.90;12.90;;;11.90;99.90;;;;;;5232355;28;20417;-47
2022/10/31 04:33:42;;;;;;;19.60;11.97;;;12.00;99.90;;;;;;5223411;28;20179;-48
2022/10/31 04:36:13;;;;;;;16.83;10.43;;;11.90;99.90;;;;;;5223455;28;20532;-45
2022/10/31 04:38:43;;;;;;;22.10;11.87;;;11.90;99.90;;;;;;5198497;28;20196;-47
2022/10/31 04:41:14;;;;;;;18.83;11.70;;;12.00;99.90;;;;;;5211507;28;20176;-49
2022/10/31 04:43:45;;;;;;;19.90;12.60;;;12.00;99.90;;;;;;5228651;28;20556;-47
2022/10/31 04:46:15;;;;;;;23.20;13.30;;;11.90;99.90;;;;;;5231124;28;20679;-47
2022/10/31 04:48:46;;;;;;;22.83;13.07;;;11.90;99.90;;;;;;5225775;28;20179;-47
2022/10/31 04:51:17;;;;;;;16.80;12.70;;;11.90;99.90;;;;;;5220528;28;20179;-47
2022/10/31 04:53:47;;;;;;;20.93;11.90;;;12.00;99.90;;;;;;5214083;28;20195;-47
2022/10/31 04:56:18;;;;;;;19.20;11.53;;;11.90;99.90;;;;;;5216745;28;20248;-48
2022/10/31 04:58:49;;;;;;;25.43;12.63;;;12.10;99.90;;;;;;5214673;28;20191;-47
2022/10/31 05:01:20;;;;;;;22.30;12.20;;;12.00;99.90;;;;;;5231177;28;20669;-48
2022/10/31 05:03:50;;;;;;;25.87;14.13;;;12.00;99.90;;;;;;5218315;28;20199;-47
2022/10/31 05:06:24;;;;;;;21.90;12.20;;;12.00;99.90;;;;;;5216929;28;20711;-48
2022/10/31 05:08:55;;;;;;;19.10;12.33;;;12.00;99.90;;;;;;5229831;28;20188;-47
2022/10/31 05:11:26;;;;;;;27.30;12.50;;;11.90;99.90;;;;;;5222471;28;20422;-47
2022/10/31 05:13:57;;;;;;;24.47;12.23;;;12.00;99.90;;;;;;5218138;28;20671;-47
2022/10/31 05:16:28;;;;;;;16.90;11.80;;;12.00;99.90;;;;;;5224460;28;20199;-50
2022/10/31 05:18:59;;;;;;;20.13;12.17;;;12.00;99.90;;;;;;5222054;28;20207;-47
2022/10/31 05:21:30;;;;;;;26.23;12.67;;;12.00;99.90;;;;;;5224777;28;20813;-48
2022/10/31 05:24:00;;;;;;;33.70;13.30;;;11.90;99.90;;;;;;5212117;28;20182;-47
2022/10/31 05:26:31;;;;;;;17.03;11.77;;;11.90;99.90;;;;;;5224456;28;20238;-47
2022/10/31 05:29:02;;;;;;;21.70;12.53;;;11.90;99.90;;;;;;5209180;28;20549;-47
2022/10/31 05:31:32;;;;;;;18.40;12.43;;;11.90;99.90;;;;;;5222896;28;20179;-50
2022/10/31 05:34:03;;;;;;;21.70;12.83;;;11.90;99.90;;;;;;5220933;28;20196;-47
2022/10/31 05:36:34;;;;;;;21.27;12.30;;;11.90;99.90;;;;;;5207605;28;20559;-47
2022/10/31 05:39:05;;;;;;;21.73;12.77;;;12.00;99.90;;;;;;5200901;28;20322;-47
2022/10/31 05:41:35;;;;;;;24.83;13.57;;;11.90;99.90;;;;;;5209216;28;20692;-47
2022/10/31 05:44:06;;;;;;;23.60;12.43;;;11.90;99.90;;;;;;5215938;28;20179;-48
2022/10/31 05:46:37;;;;;;;21.00;12.70;;;11.80;99.90;;;;;;5223262;28;20182;-48
2022/10/31 05:49:07;;;;;;;21.63;12.30;;;11.80;99.90;;;;;;5209948;28;20203;-51
2022/10/31 05:51:38;;;;;;;27.60;13.07;;;11.80;99.90;;;;;;5226292;28;20191;-48
2022/10/31 05:54:09;;;;;;;14.60;11.47;;;11.80;99.90;;;;;;5217025;28;20191;-47
2022/10/31 05:56:40;;;;;;;26.23;13.03;;;11.90;99.90;;;;;;5228482;28;20190;-49
2022/10/31 05:59:11;;;;;;;26.73;13.10;;;11.90;99.90;;;;;;5217657;28;20179;-48
2022/10/31 06:01:41;;;;;;;37.53;13.87;;;11.90;99.90;;;;;;5224802;28;20485;-53
2022/10/31 06:04:12;;;;;;;27.03;13.40;;;11.90;99.90;;;;;;5224521;28;20646;-49
2022/10/31 06:06:43;;;;;;;26.20;12.10;;;12.00;99.90;;;;;;5227376;28;20187;-46
2022/10/31 06:09:13;;;;;;;20.43;12.47;;;12.00;99.90;;;;;;5227881;28;20182;-47
2022/10/31 06:11:44;;;;;;;24.93;12.80;;;12.00;99.90;;;;;;5228106;28;20190;-48
2022/10/31 06:14:15;;;;;;;25.67;13.40;;;12.00;99.90;;;;;;5221841;28;20184;-48
2022/10/31 06:16:46;;;;;;;29.90;12.13;;;12.10;99.90;;;;;;5218495;28;20179;-50
2022/10/31 06:19:16;;;;;;;18.47;12.40;;;12.10;99.90;;;;;;5208888;28;20182;-49
2022/10/31 06:21:47;;;;;;;18.67;12.70;;;12.10;99.90;;;;;;5224476;28;20185;-47
2022/10/31 06:24:18;;;;;;;23.87;14.20;;;12.20;99.90;;;;;;5220681;28;20664;-47
2022/10/31 06:26:48;;;;;;;22.53;13.07;;;12.30;99.90;;;;;;5221605;28;20655;-48
2022/10/31 06:29:19;;;;;;;19.60;12.90;;;12.40;99.90;;;;;;5224699;28;20184;-48
2022/10/31 06:31:53;;;;;;;29.03;13.20;;;12.50;99.90;;;;;;5225802;28;20217;-48
2022/10/31 06:34:24;;;;;;;25.40;12.07;;;12.90;99.90;;;;;;5215873;28;20192;-47
2022/10/31 06:36:54;;;;;;;14.57;10.53;;;13.20;99.90;;;;;;5226273;28;20452;-46
2022/10/31 06:39:25;;;;;;;18.33;12.50;;;13.60;99.90;;;;;;5221010;28;20182;-49
2022/10/31 06:41:56;;;;;;;21.67;12.10;;;13.80;99.90;;;;;;5200061;28;20232;-51
2022/10/31 06:44:27;;;;;;;25.87;12.20;;;13.80;99.90;;;;;;5217167;28;20214;-48
2022/10/31 06:46:58;;;;;;;22.20;11.20;;;13.80;99.90;;;;;;5219150;28;20429;-49
2022/10/31 06:49:31;;;;;;;27.27;11.93;;;13.90;99.90;;;;;;5223732;28;20217;-47
2022/10/31 06:52:01;;;;;;;23.87;12.20;;;14.20;99.90;;;;;;5232427;28;20753;-49
2022/10/31 06:54:32;;;;;;;23.13;11.33;;;14.60;99.90;;;;;;5223751;28;20500;-49
2022/10/31 06:57:03;;;;;;;17.60;10.93;;;14.70;99.90;;;;;;5216102;28;20186;-47
2022/10/31 06:59:35;;;;;;;26.83;11.53;;;14.70;99.90;;;;;;5224128;28;20312;-47
2022/10/31 07:02:07;;;;;;;20.90;12.40;;;14.70;99.90;;;;;;5229222;28;20506;-49
2022/10/31 07:04:38;;;;;;;39.90;12.20;;;14.70;99.90;;;;;;5229820;28;20500;-50
2022/10/31 07:07:08;;;;;;;26.37;12.07;;;14.60;99.90;;;;;;5227858;28;20438;-48
2022/10/31 07:09:39;;;;;;;21.30;11.50;;;14.40;99.90;;;;;;5218755;28;20241;-47
2022/10/31 07:12:10;;;;;;;19.07;11.60;;;14.20;99.90;;;;;;5209927;28;20178;-46
2022/10/31 07:14:41;;;;;;;28.30;12.13;;;14.10;99.90;;;;;;5228837;28;20202;-49
2022/10/31 07:17:12;;;;;;;18.90;11.23;;;14.10;99.90;;;;;;5224864;28;20185;-50
2022/10/31 07:19:42;;;;;;;26.90;13.33;;;14.10;99.90;;;;;;5224903;28;20183;-50
2022/10/31 07:22:15;;;;;;;29.20;11.93;;;14.20;99.90;;;;;;5225269;28;20179;-52
2022/10/31 07:24:46;;;;;;;25.93;12.37;;;14.40;99.90;;;;;;5209114;28;20203;-48
2022/10/31 07:27:17;;;;;;;23.60;13.57;;;14.60;99.90;;;;;;5216574;28;20801;-47
2022/10/31 07:29:48;;;;;;;27.07;12.40;;;14.70;99.90;;;;;;5219985;28;20194;-52
2022/10/31 07:32:19;;;;;;;19.43;10.60;;;14.80;99.90;;;;;;5213568;28;20950;-49
2022/10/31 07:34:50;;;;;;;26.97;13.20;;;14.90;99.90;;;;;;5219547;28;20221;-48
2022/10/31 07:37:21;;;;;;;15.93;11.47;;;15.10;99.90;;;;;;5219560;28;20674;-50
2022/10/31 07:39:51;;;;;;;23.37;11.60;;;15.30;99.90;;;;;;5219614;28;20206;-48
2022/10/31 07:42:22;;;;;;;22.27;11.43;;;15.40;99.90;;;;;;5221969;28;20652;-49
2022/10/31 07:44:53;;;;;;;25.77;11.40;;;15.60;99.90;;;;;;5225013;28;20215;-49
2022/10/31 07:47:25;;;;;;;22.83;11.67;;;15.70;99.90;;;;;;5219629;28;20180;-48
2022/10/31 07:50:02;;;;;;;25.87;15.13;;;15.70;99.90;;;;;;5224501;28;20516;-50
2022/10/31 07:52:37;;;;;;;17.83;11.60;;;15.80;99.90;;;;;;5207054;28;20444;-50
2022/10/31 07:55:08;;;;;;;31.93;13.87;;;15.60;99.90;;;;;;5220592;28;20468;-53
2022/10/31 07:57:41;;;;;;;27.53;12.60;;;15.30;99.90;;;;;;5220296;28;20436;-49
2022/10/31 08:00:12;;;;;;;18.53;11.60;;;15.10;99.90;;;;;;5212363;28;20445;-47
2022/10/31 08:02:43;;;;;;;19.90;12.03;;;15.10;99.90;;;;;;5224001;28;21060;-49
2022/10/31 08:05:14;;;;;;;22.43;12.60;;;15.10;99.90;;;;;;5225040;28;20463;-49
2022/10/31 08:07:45;;;;;;;22.67;12.60;;;15.10;99.90;;;;;;5230577;28;20184;-48
2022/10/31 08:10:16;;;;;;;17.80;12.17;;;15.00;99.90;;;;;;5218373;28;20568;-47
2022/10/31 08:12:46;;;;;;;27.83;12.27;;;15.10;99.90;;;;;;5223269;28;20187;-49
2022/10/31 08:15:17;;;;;;;22.20;12.97;;;14.90;99.90;;;;;;5221820;28;20215;-55
2022/10/31 08:17:48;;;;;;;29.50;12.30;;;14.80;99.90;;;;;;5210729;28;20211;-48
2022/10/31 08:20:20;;;;;;;30.93;13.07;;;14.80;99.90;;;;;;5226813;28;20175;-48
2022/10/31 08:22:56;;;;;;;24.43;14.17;;;14.80;99.90;;;;;;5223652;28;20602;-47
2022/10/31 08:25:30;;;;;;;32.00;14.10;;;14.70;99.90;;;;;;5227030;28;20487;-49
2022/10/31 08:28:02;;;;;;;20.93;12.50;;;14.70;99.90;;;;;;5226796;28;20471;-49
2022/10/31 08:30:35;;;;;;;36.00;14.17;;;14.80;99.90;;;;;;5228121;28;20860;-49
2022/10/31 08:33:11;;;;;;;25.00;12.90;;;14.90;99.90;;;;;;5220009;28;20465;-49
2022/10/31 08:35:42;;;;;;;28.80;13.33;;;14.90;99.90;;;;;;5224313;28;20454;-48
2022/10/31 08:38:14;;;;;;;32.90;14.97;;;14.90;99.90;;;;;;5226234;28;20436;-49
2022/10/31 08:40:48;;;;;;;22.20;13.40;;;15.00;99.90;;;;;;5206171;28;20477;-50
2022/10/31 08:43:19;;;;;;;21.13;13.50;;;14.90;99.90;;;;;;5208231;28;20445;-50
2022/10/31 08:45:50;;;;;;;34.63;14.93;;;14.90;99.90;;;;;;5213330;28;20476;-50
2022/10/31 08:48:21;;;;;;;37.30;16.03;;;14.80;99.90;;;;;;5216700;28;20175;-48
2022/10/31 08:50:55;;;;;;;20.80;15.07;;;14.80;99.90;;;;;;5213328;28;20524;-51
2022/10/31 08:53:26;;;;;;;21.27;14.90;;;14.80;99.90;;;;;;5224355;28;20444;-49
2022/10/31 08:55:57;;;;;;;24.27;14.30;;;14.80;99.90;;;;;;5223434;28;20861;-49
2022/10/31 08:58:28;;;;;;;26.07;14.10;;;14.80;99.90;;;;;;5220820;28;20437;-50
2022/10/31 09:01:00;;;;;;;31.70;14.37;;;15.00;99.90;;;;;;5218809;28;20214;-48
2022/10/31 09:03:31;;;;;;;26.77;14.40;;;15.10;99.90;;;;;;5199590;28;20192;-48
2022/10/31 09:06:05;;;;;;;27.57;15.07;;;15.00;99.90;;;;;;5224914;28;20461;-49
2022/10/31 09:08:36;;;;;;;24.03;13.97;;;15.10;99.90;;;;;;5221187;28;20793;-49
2022/10/31 09:11:09;;;;;;;33.77;15.50;;;15.10;99.90;;;;;;5222979;28;20430;-49
2022/10/31 09:13:40;;;;;;;25.43;14.07;;;15.20;99.90;;;;;;5220977;28;21169;-54
2022/10/31 09:16:11;;;;;;;27.00;13.60;;;15.20;99.90;;;;;;5200353;28;20451;-48
2022/10/31 09:18:41;;;;;;;24.43;16.53;;;15.10;99.90;;;;;;5215809;28;20175;-54
2022/10/31 09:21:12;;;;;;;28.73;16.37;;;15.10;99.90;;;;;;5216159;28;20182;-55
2022/10/31 09:23:43;;;;;;;23.80;14.77;;;15.10;99.90;;;;;;5216095;28;20180;-55
2022/10/31 09:26:14;;;;;;;29.93;14.80;;;15.10;99.90;;;;;;5221727;28;20213;-52
2022/10/31 09:28:46;;;;;;;24.23;14.63;;;15.20;99.90;;;;;;5221671;28;20187;-51
2022/10/31 09:31:16;;;;;;;25.30;15.20;;;15.30;99.90;;;;;;5222323;28;20241;-48
2022/10/31 09:33:47;;;;;;;32.07;16.60;;;15.20;99.90;;;;;;5227539;28;20433;-49
2022/10/31 09:36:18;;;;;;;29.13;15.33;;;15.20;99.90;;;;;;5221397;28;20210;-51
2022/10/31 09:38:52;;;;;;;25.10;15.63;;;15.20;99.90;;;;;;5222599;28;20182;-51
2022/10/31 09:41:26;;;;;;;29.70;15.30;;;15.40;99.90;;;;;;5218251;28;20183;-51
2022/10/31 09:44:37;;;;;;;28.43;16.67;;;15.40;99.90;;;;;;5221262;28;20794;-50
2022/10/31 09:47:27;;;;;;;25.93;15.43;;;15.50;99.90;;;;;;5180852;28;20437;-51
2022/10/31 09:50:07;;;;;;;20.00;14.60;;;15.40;99.90;;;;;;5242309;28;20948;-49
2022/10/31 09:52:43;;;;;;;22.30;14.20;;;15.30;99.90;;;;;;5218666;28;20437;-48
2022/10/31 09:55:16;;;;;;;32.77;14.93;;;15.30;99.90;;;;;;5217768;28;20528;-49
2022/10/31 09:57:48;;;;;;;20.87;14.27;;;15.30;99.90;;;;;;5222511;28;20767;-49
2022/10/31 10:00:21;;;;;;;30.17;17.43;;;15.30;99.90;;;;;;5211566;28;20517;-53
2022/10/31 10:03:07;;;;;;;36.43;15.80;;;15.40;99.90;;;;;;5225027;28;20438;-50
2022/10/31 10:05:46;;;;;;;24.37;15.77;;;15.60;99.90;;;;;;5224690;28;20468;-49
2022/10/31 10:08:25;;;;;;;40.60;16.70;;;15.80;99.90;;;;;;5221276;28;20476;-50
2022/10/31 10:11:08;;;;;;;27.00;16.07;;;16.00;99.90;;;;;;5219690;28;20430;-50
2022/10/31 10:14:08;;;;;;;20.67;15.00;;;16.10;99.90;;;;;;5226285;28;20435;-49
2022/10/31 10:17:33;;;;;;;25.87;13.80;;;16.20;99.90;;;;;;5213940;28;21011;-50
2022/10/31 10:20:15;;;;;;;32.80;16.20;;;16.40;99.90;;;;;;5166045;28;20968;-50
2022/10/31 10:23:10;;;;;;;28.83;13.70;;;16.50;99.90;;;;;;5214190;28;20816;-51
2022/10/31 10:25:43;;;;;;;34.37;18.30;;;16.50;99.90;;;;;;5223489;28;20473;-50
2022/10/31 10:28:22;;;;;;;31.40;15.70;;;16.50;99.90;;;;;;5209246;28;20960;-49
2022/10/31 10:31:03;;;;;;;31.47;17.87;;;16.50;99.90;;;;;;5225265;28;21106;-51
2022/10/31 10:33:39;;;;;;;28.97;18.67;;;16.50;99.90;;;;;;5219051;28;20436;-50
2022/10/31 10:36:28;;;;;;;36.80;18.00;;;16.50;99.90;;;;;;5222672;28;20464;-51
2022/10/31 10:39:08;;;;;;;33.80;18.20;;;16.50;99.90;;;;;;5225990;28;20979;-49
2022/10/31 10:41:44;;;;;;;48.33;21.67;;;16.60;99.90;;;;;;5228309;28;20694;-51
2022/10/31 10:44:20;;;;;;;26.93;17.23;;;16.60;99.90;;;;;;5230390;28;20435;-50
2022/10/31 10:49:51;;;;;;;27.80;15.87;;;16.80;99.90;;;;;;5225598;28;20444;-49
2022/10/31 10:52:28;;;;;;;33.20;18.63;;;16.90;99.90;;;;;;5223460;28;20436;-50
2022/10/31 10:55:21;;;;;;;65.20;27.40;;;17.00;99.90;;;;;;5232164;28;20889;-48
2022/10/31 10:57:58;;;;;;;28.60;17.80;;;17.00;99.90;;;;;;5219554;28;20982;-55
2022/10/31 11:00:36;;;;;;;39.60;17.67;;;17.00;99.90;;;;;;5213365;28;20445;-50
2022/10/31 11:03:07;;;;;;;28.43;16.33;;;17.10;99.90;;;;;;5208579;28;20487;-50
2022/10/31 11:05:58;;;;;;;25.03;15.07;;;17.30;99.90;;;;;;5215867;28;20485;-49
2022/10/31 11:08:37;;;;;;;21.90;14.90;;;17.40;99.90;;;;;;5219736;28;20460;-53
2022/10/31 11:11:16;;;;;;;28.33;16.63;;;17.50;99.90;;;;;;5216882;28;20470;-50
2022/10/31 11:13:51;;;;;;;25.27;13.93;;;17.60;99.90;;;;;;5216070;28;20438;-52
2022/10/31 11:16:31;;;;;;;19.10;12.23;;;17.60;99.90;;;;;;5217026;28;20488;-48
2022/10/31 11:19:28;;;;;;;24.70;15.00;;;17.80;99.90;;;;;;5223718;28;20455;-51
2022/10/31 11:22:07;;;;;;;20.27;12.70;;;17.80;99.90;;;;;;5214305;28;20496;-49
2022/10/31 11:24:41;;;;;;;23.20;13.53;;;17.80;99.90;;;;;;5213026;28;20473;-50
2022/10/31 11:27:20;;;;;;;30.00;14.23;;;17.90;99.90;;;;;;5220008;28;20437;-50
2022/10/31 11:29:51;;;;;;;21.17;14.37;;;18.00;99.90;;;;;;5219764;28;20953;-51
2022/10/31 11:32:25;;;;;;;34.43;15.30;;;18.10;99.90;;;;;;5223352;28;20429;-49
2022/10/31 11:35:00;;;;;;;20.53;13.40;;;18.20;99.90;;;;;;5223271;28;20988;-50
2022/10/31 11:37:37;;;;;;;25.20;16.57;;;18.20;99.90;;;;;;5223121;28;20445;-52
2022/10/31 11:40:18;;;;;;;24.20;14.53;;;18.30;99.90;;;;;;5225298;28;20437;-49
2022/10/31 11:42:50;;;;;;;21.70;13.23;;;18.40;99.90;;;;;;5221371;28;20436;-51
2022/10/31 11:45:24;;;;;;;23.37;15.60;;;18.40;99.90;;;;;;5222515;28;21065;-59
2022/10/31 11:47:56;;;;;;;31.23;15.70;;;18.40;99.90;;;;;;5232933;28;20507;-51
2022/10/31 11:50:36;;;;;;;36.67;18.60;;;18.40;99.90;;;;;;5221470;28;20433;-49
2022/10/31 11:53:16;;;;;;;46.53;19.50;;;18.30;99.90;;;;;;5215350;28;20906;-50
2022/10/31 11:55:59;;;;;;;31.47;18.47;;;18.30;99.90;;;;;;5220521;28;20818;-50
2022/10/31 11:58:30;;;;;;;38.23;21.57;;;18.30;99.90;;;;;;5216705;28;21045;-53
2022/10/31 12:01:01;;;;;;;31.97;18.10;;;18.30;99.90;;;;;;5223472;28;20527;-53
2022/10/31 12:03:49;;;;;;;35.57;20.00;;;18.20;99.90;;;;;;5219143;28;20485;-50
2022/10/31 12:06:28;;;;;;;24.60;14.80;;;18.00;99.90;;;;;;5216430;28;20217;-50
2022/10/31 12:08:59;;;;;;;30.37;18.27;;;18.00;99.90;;;;;;5222720;28;20437;-53
2022/10/31 12:11:33;;;;;;;27.43;18.43;;;18.10;99.90;;;;;;5222017;28;20548;-51
2022/10/31 12:14:07;;;;;;;31.70;20.03;;;18.00;99.90;;;;;;5229485;28;20433;-51
2022/10/31 12:17:02;;;;;;;35.50;18.63;;;18.00;99.90;;;;;;5218064;28;20437;-51
2022/10/31 12:20:03;;;;;;;33.20;18.00;;;18.10;99.90;;;;;;5217466;28;20434;-49
2022/10/31 12:22:51;;;;;;;36.13;20.97;;;18.20;99.90;;;;;;5217645;28;20431;-50
2022/10/31 12:25:39;;;;;;;37.23;18.33;;;18.20;99.90;;;;;;5218464;28;20466;-52
2022/10/31 12:28:13;;;;;;;45.70;22.67;;;18.30;99.90;;;;;;5209769;28;20434;-51
2022/10/31 12:31:12;;;;;;;40.43;21.80;;;18.50;99.90;;;;;;5235695;28;20445;-50
2022/10/31 12:34:07;;;;;;;29.57;16.17;;;18.60;99.90;;;;;;5218183;28;20910;-51
2022/10/31 12:37:08;;;;;;;30.63;16.13;;;18.70;99.90;;;;;;5177218;28;20449;-51
2022/10/31 12:39:47;;;;;;;28.53;17.10;;;18.80;99.90;;;;;;5226394;28;20445;-50
2022/10/31 12:42:50;;;;;;;30.97;17.70;;;18.70;99.90;;;;;;5220890;28;20525;-52
2022/10/31 12:45:54;;;;;;;35.80;20.57;;;18.60;99.90;;;;;;5221703;28;21031;-50
2022/10/31 12:48:49;;;;;;;30.10;19.07;;;18.50;99.90;;;;;;5220096;28;20803;-51
2022/10/31 12:51:52;;;;;;;42.47;20.90;;;18.40;99.90;;;;;;5224995;28;20442;-51
2022/10/31 12:54:32;;;;;;;36.53;20.00;;;18.30;99.90;;;;;;5225677;28;20462;-52
2022/10/31 12:57:18;;;;;;;30.87;18.33;;;18.30;99.90;;;;;;5221128;28;21004;-52
2022/10/31 12:59:54;;;;;;;26.40;15.87;;;18.20;99.90;;;;;;5221368;28;20969;-50
2022/10/31 13:02:27;;;;;;;32.50;18.20;;;18.20;99.90;;;;;;5215831;28;20440;-51
2022/10/31 13:05:04;;;;;;;28.73;17.40;;;18.20;99.90;;;;;;5223422;28;20480;-51
2022/10/31 13:07:46;;;;;;;29.97;16.23;;;18.20;99.90;;;;;;5220386;28;20854;-50
2022/10/31 13:10:30;;;;;;;28.13;14.60;;;18.20;99.90;;;;;;5224465;28;20545;-53
2022/10/31 13:13:30;;;;;;;29.03;17.10;;;18.30;99.90;;;;;;5225028;28;20433;-50